createdAt,value
2022-09-27T00:01:15.427Z,11.77
2022-09-27T00:03:43.594Z,10.65
2022-09-27T00:06:15.688Z,12.10
2022-09-27T00:08:44.588Z,11.60
2022-09-27T00:11:18.959Z,11.17
2022-09-27T00:13:47.041Z,12.00
2022-09-27T00:16:15.341Z,11.47
2022-09-27T00:18:43.770Z,13.57
2022-09-27T00:21:15.479Z,11.90
2022-09-27T00:23:43.670Z,12.53
2022-09-27T00:26:14.221Z,11.30
2022-09-27T00:28:42.523Z,12.40
2022-09-27T00:31:21.250Z,12.03
2022-09-27T00:33:50.252Z,14.10
2022-09-27T00:36:21.042Z,12.65
2022-09-27T00:38:49.627Z,12.83
2022-09-27T00:41:20.238Z,12.98
2022-09-27T00:43:50.573Z,12.60
2022-09-27T00:46:27.558Z,12.93
2022-09-27T00:49:05.419Z,12.60
2022-09-27T00:51:38.348Z,12.38
2022-09-27T00:54:08.583Z,13.13
2022-09-27T00:56:38.436Z,12.85
2022-09-27T00:59:11.995Z,12.35
2022-09-27T01:01:40.672Z,13.23
2022-09-27T01:04:10.859Z,12.45
2022-09-27T01:06:40.302Z,11.63
2022-09-27T01:09:10.592Z,12.02
2022-09-27T01:11:47.003Z,11.85
2022-09-27T01:14:44.256Z,12.30
2022-09-27T01:17:27.794Z,11.27
2022-09-27T01:20:31.451Z,12.05
2022-09-27T01:23:20.655Z,11.30
2022-09-27T01:26:01.981Z,11.18
2022-09-27T01:28:44.861Z,11.13
2022-09-27T01:31:24.174Z,10.85
2022-09-27T01:34:04.116Z,10.88
2022-09-27T01:36:43.642Z,11.18
2022-09-27T01:39:39.386Z,11.45
2022-09-27T01:42:15.581Z,11.05
2022-09-27T01:44:53.678Z,9.85
2022-09-27T01:47:24.464Z,9.95
2022-09-27T01:49:58.250Z,11.02
2022-09-27T01:52:33.058Z,10.52
2022-09-27T01:55:04.219Z,11.73
2022-09-27T01:57:37.665Z,10.75
2022-09-27T02:00:08.817Z,10.35
2022-09-27T02:02:44.650Z,10.63
2022-09-27T02:05:17.948Z,10.80
2022-09-27T02:07:52.903Z,11.27
2022-09-27T02:10:24.993Z,10.65
2022-09-27T02:13:03.002Z,11.27
2022-09-27T02:15:40.327Z,11.18
2022-09-27T02:18:17.788Z,11.30
2022-09-27T02:20:50.683Z,12.18
2022-09-27T02:23:24.942Z,10.95
2022-09-27T02:25:58.793Z,11.80
2022-09-27T02:28:32.291Z,11.52
2022-09-27T02:31:00.949Z,12.15
2022-09-27T02:33:35.567Z,11.85
2022-09-27T02:36:03.804Z,12.35
2022-09-27T02:38:32.060Z,12.43
2022-09-27T02:41:00.173Z,12.25
2022-09-27T02:43:32.233Z,13.10
2022-09-27T02:46:12.802Z,12.82
2022-09-27T02:48:50.787Z,13.50
2022-09-27T02:51:40.179Z,12.98
2022-09-27T02:54:19.632Z,11.10
2022-09-27T02:57:05.655Z,10.05
2022-09-27T02:59:43.104Z,10.65
2022-09-27T03:02:18.067Z,10.85
2022-09-27T03:04:53.156Z,11.45
2022-09-27T03:07:22.159Z,10.77
2022-09-27T03:09:53.601Z,11.20
2022-09-27T03:12:26.180Z,11.05
2022-09-27T03:14:56.289Z,11.48
2022-09-27T03:17:24.525Z,10.25
2022-09-27T03:19:53.913Z,11.27
2022-09-27T03:22:22.379Z,12.20
2022-09-27T03:24:50.411Z,10.85
2022-09-27T03:27:18.706Z,11.98
2022-09-27T03:29:47.219Z,11.73
2022-09-27T03:32:15.435Z,11.88
2022-09-27T03:34:43.516Z,11.18
2022-09-27T03:37:12.878Z,10.82
2022-09-27T03:39:40.927Z,9.85
2022-09-27T03:42:08.902Z,9.48
2022-09-27T03:44:37.112Z,8.88
2022-09-27T03:47:05.218Z,10.05
2022-09-27T03:49:33.966Z,10.40
2022-09-27T03:52:02.212Z,10.07
2022-09-27T03:54:31.616Z,9.77
2022-09-27T03:56:59.575Z,9.50
2022-09-27T03:59:27.603Z,9.45
2022-09-27T04:01:56.406Z,9.40
2022-09-27T04:04:25.079Z,9.48
2022-09-27T04:06:53.303Z,9.02
2022-09-27T04:09:21.389Z,8.80
2022-09-27T04:11:50.780Z,9.30
2022-09-27T04:14:18.802Z,9.57
2022-09-27T04:16:46.903Z,8.52
2022-09-27T04:19:15.110Z,10.33
2022-09-27T04:21:43.292Z,9.43
2022-09-27T04:24:12.046Z,11.18
2022-09-27T04:26:40.741Z,10.38
2022-09-27T04:29:10.463Z,10.32
2022-09-27T04:31:38.553Z,9.02
2022-09-27T04:34:06.961Z,10.02
2022-09-27T04:36:34.524Z,10.18
2022-09-27T04:39:04.842Z,9.82
2022-09-27T04:41:33.274Z,10.55
2022-09-27T04:44:01.404Z,10.60
2022-09-27T04:46:32.263Z,14.30
2022-09-27T04:49:01.460Z,13.30
2022-09-27T04:51:29.760Z,9.98
2022-09-27T04:53:58.327Z,10.40
2022-09-27T04:56:26.492Z,10.57
2022-09-27T04:58:55.022Z,10.82
2022-09-27T05:01:23.399Z,12.52
2022-09-27T05:03:52.923Z,11.20
2022-09-27T05:06:20.906Z,12.15
2022-09-27T05:08:48.932Z,14.18
2022-09-27T05:11:16.916Z,12.38
2022-09-27T05:13:44.948Z,11.02
2022-09-27T05:16:13.301Z,10.27
2022-09-27T05:18:42.394Z,10.40
2022-09-27T05:21:11.765Z,10.25
2022-09-27T05:23:41.322Z,10.40
2022-09-27T05:26:12.321Z,9.85
2022-09-27T05:28:44.645Z,10.15
2022-09-27T05:31:13.511Z,10.00
2022-09-27T05:33:42.960Z,11.02
2022-09-27T05:36:12.781Z,9.57
2022-09-27T05:38:43.091Z,10.43
2022-09-27T05:41:12.048Z,9.65
2022-09-27T05:43:40.109Z,9.50
2022-09-27T05:46:08.546Z,10.30
2022-09-27T05:48:37.278Z,9.52
2022-09-27T05:51:06.358Z,10.35
2022-09-27T05:53:36.623Z,9.80
2022-09-27T05:56:05.686Z,10.15
2022-09-27T05:58:34.519Z,10.05
2022-09-27T06:01:02.475Z,10.02
2022-09-27T06:03:31.998Z,9.05
2022-09-27T06:06:06.183Z,9.30
2022-09-27T06:08:36.978Z,13.40
2022-09-27T06:11:07.024Z,9.23
2022-09-27T06:13:36.485Z,10.05
2022-09-27T06:16:05.889Z,8.82
2022-09-27T06:18:34.486Z,9.32
2022-09-27T06:21:03.106Z,8.20
2022-09-27T06:23:33.431Z,8.35
2022-09-27T06:26:05.086Z,8.20
2022-09-27T06:28:35.098Z,8.38
2022-09-27T06:31:03.102Z,8.77
2022-09-27T06:33:31.408Z,8.55
2022-09-27T06:36:03.725Z,8.00
2022-09-27T06:38:32.958Z,8.30
2022-09-27T06:41:07.052Z,9.18
2022-09-27T06:43:35.230Z,9.73
2022-09-27T06:46:06.085Z,9.68
2022-09-27T06:48:37.770Z,10.00
2022-09-27T06:51:05.861Z,10.15
2022-09-27T06:53:34.359Z,10.27
2022-09-27T06:56:04.966Z,10.98
2022-09-27T06:58:50.385Z,10.30
2022-09-27T07:01:18.887Z,10.98
2022-09-27T07:03:51.565Z,10.25
2022-09-27T07:06:22.736Z,10.40
2022-09-27T07:08:54.244Z,9.90
2022-09-27T07:11:26.115Z,10.35
2022-09-27T07:13:54.138Z,9.07
2022-09-27T07:16:22.143Z,9.57
2022-09-27T07:18:51.648Z,9.75
2022-09-27T07:21:19.888Z,9.75
2022-09-27T07:23:48.719Z,10.57
2022-09-27T07:26:16.786Z,9.95
2022-09-27T07:28:46.284Z,9.75
2022-09-27T07:31:14.468Z,10.98
2022-09-27T07:33:43.629Z,9.65
2022-09-27T07:36:13.131Z,9.20
2022-09-27T07:38:41.359Z,8.82
2022-09-27T07:41:12.485Z,8.98
2022-09-27T07:43:40.465Z,8.32
2022-09-27T07:46:11.314Z,8.00
2022-09-27T07:48:41.231Z,8.68
2022-09-27T07:51:10.971Z,7.10
2022-09-27T07:53:39.718Z,7.35
2022-09-27T07:56:08.222Z,7.05
2022-09-27T07:58:36.228Z,7.25
2022-09-27T08:01:04.407Z,7.80
2022-09-27T08:03:35.054Z,7.03
2022-09-27T08:06:04.417Z,6.88
2022-09-27T08:08:32.570Z,6.70
2022-09-27T08:11:00.592Z,6.90
2022-09-27T08:13:29.646Z,6.35
2022-09-27T08:16:03.737Z,6.93
2022-09-27T08:18:35.929Z,6.90
2022-09-27T08:21:05.006Z,6.50
2022-09-27T08:23:33.171Z,7.20
2022-09-27T08:26:01.239Z,6.65
2022-09-27T08:28:29.966Z,6.28
2022-09-27T08:30:59.268Z,6.15
2022-09-27T08:33:32.316Z,6.35
2022-09-27T08:36:03.644Z,6.82
2022-09-27T08:38:31.639Z,5.97
2022-09-27T08:41:06.582Z,6.18
2022-09-27T08:43:40.528Z,5.93
2022-09-27T08:46:23.051Z,5.13
2022-09-27T08:48:55.967Z,5.80
2022-09-27T08:51:31.286Z,5.97
2022-09-27T08:54:05.495Z,6.57
2022-09-27T08:56:33.618Z,6.40
2022-09-27T08:59:10.406Z,5.80
2022-09-27T09:01:39.216Z,5.60
2022-09-27T09:04:07.806Z,5.38
2022-09-27T09:06:44.202Z,5.63
2022-09-27T09:09:27.621Z,5.78
2022-09-27T09:12:24.489Z,5.82
2022-09-27T09:15:05.891Z,5.82
2022-09-27T09:17:47.823Z,6.35
2022-09-27T09:20:27.429Z,5.82
2022-09-27T09:23:16.585Z,5.68
2022-09-27T09:25:52.173Z,6.20
2022-09-27T09:28:36.177Z,5.57
2022-09-27T09:31:13.015Z,5.78
2022-09-27T09:33:47.506Z,5.72
2022-09-27T09:36:24.279Z,5.53
2022-09-27T09:38:58.561Z,5.72
2022-09-27T09:41:32.322Z,5.35
2022-09-27T09:44:06.344Z,5.82
2022-09-27T09:46:43.434Z,5.63
2022-09-27T09:49:20.158Z,7.05
2022-09-27T09:51:55.907Z,5.85
2022-09-27T09:54:28.762Z,6.38
2022-09-27T09:57:03.658Z,6.03
2022-09-27T09:59:39.749Z,5.60
2022-09-27T10:02:25.052Z,6.45
2022-09-27T10:04:53.121Z,6.68
2022-09-27T10:07:23.699Z,6.80
2022-09-27T10:09:55.413Z,6.50
2022-09-27T10:12:23.683Z,6.07
2022-09-27T10:14:53.095Z,5.85
2022-09-27T10:17:25.528Z,5.82
2022-09-27T10:19:54.823Z,5.55
2022-09-27T10:22:28.486Z,4.95
2022-09-27T10:25:01.945Z,4.35
2022-09-27T10:27:38.988Z,4.85
2022-09-27T10:30:28.080Z,5.00
2022-09-27T10:33:01.002Z,5.20
2022-09-27T10:35:38.287Z,4.97
2022-09-27T10:38:25.404Z,5.43
2022-09-27T10:40:57.359Z,5.20
2022-09-27T10:43:31.423Z,5.55
2022-09-27T10:46:07.693Z,5.55
2022-09-27T10:48:36.824Z,4.85
2022-09-27T10:51:07.928Z,4.55
2022-09-27T10:53:37.998Z,5.32
2022-09-27T10:56:08.465Z,4.35
2022-09-27T10:58:39.621Z,4.75
2022-09-27T11:01:12.421Z,4.95
2022-09-27T11:03:49.298Z,4.70
2022-09-27T11:06:28.352Z,4.93
2022-09-27T11:09:10.641Z,4.60
2022-09-27T11:11:39.993Z,4.55
2022-09-27T11:14:20.040Z,4.70
2022-09-27T11:16:57.269Z,5.13
2022-09-27T11:19:42.470Z,4.50
2022-09-27T11:22:25.862Z,4.50
2022-09-27T11:25:14.050Z,4.80
2022-09-27T11:27:57.608Z,4.65
2022-09-27T11:30:26.213Z,5.13
2022-09-27T11:33:26.698Z,4.93
2022-09-27T11:36:02.849Z,4.63
2022-09-27T11:38:52.708Z,4.07
2022-09-27T11:41:46.333Z,4.25
2022-09-27T11:44:45.539Z,4.20
2022-09-27T11:47:21.274Z,4.50
2022-09-27T11:50:44.708Z,4.05
2022-09-27T11:53:26.943Z,4.22
2022-09-27T11:56:04.695Z,4.10
2022-09-27T11:58:43.253Z,4.30
2022-09-27T12:01:26.912Z,4.13
2022-09-27T12:04:20.412Z,4.25
2022-09-27T12:06:58.872Z,4.28
2022-09-27T12:09:32.254Z,3.72
2022-09-27T12:12:05.546Z,3.78
2022-09-27T12:14:40.230Z,4.45
2022-09-27T12:17:16.828Z,4.00
2022-09-27T12:19:50.969Z,4.30
2022-09-27T12:22:46.665Z,4.35
2022-09-27T12:25:20.294Z,3.90
2022-09-27T12:27:53.764Z,4.18
2022-09-27T12:30:21.724Z,3.65
2022-09-27T12:32:57.903Z,3.88
2022-09-27T12:35:30.243Z,3.92
2022-09-27T12:38:02.291Z,3.90
2022-09-27T12:40:33.129Z,3.70
2022-09-27T12:43:06.051Z,4.20
2022-09-27T12:45:47.232Z,4.15
2022-09-27T12:48:24.661Z,3.70
2022-09-27T12:50:55.420Z,4.22
2022-09-27T12:53:28.632Z,3.75
2022-09-27T12:56:15.123Z,3.63
2022-09-27T12:59:23.895Z,4.03
2022-09-27T13:02:26.883Z,3.45
2022-09-27T13:05:18.400Z,4.00
2022-09-27T13:07:55.271Z,4.00
2022-09-27T13:10:45.230Z,3.95
2022-09-27T13:13:16.991Z,3.72
2022-09-27T13:15:47.168Z,3.67
2022-09-27T13:18:50.204Z,4.00
2022-09-27T13:22:04.253Z,3.92
2022-09-27T13:24:48.506Z,3.70
2022-09-27T13:27:38.139Z,4.18
2022-09-27T13:30:48.686Z,4.05
2022-09-27T13:33:46.099Z,3.75
2022-09-27T13:36:34.085Z,3.60
2022-09-27T13:39:22.867Z,4.18
2022-09-27T13:42:17.831Z,3.83
2022-09-27T13:44:54.977Z,3.55
2022-09-27T13:47:32.967Z,4.20
2022-09-27T13:50:15.104Z,4.20
2022-09-27T13:52:46.266Z,3.90
2022-09-27T13:55:41.715Z,4.03
2022-09-27T13:58:34.558Z,3.88
2022-09-27T14:01:07.847Z,3.80
2022-09-27T14:03:38.764Z,4.15
2022-09-27T14:06:09.384Z,3.95
2022-09-27T14:08:45.547Z,4.10
2022-09-27T14:11:17.162Z,3.90
2022-09-27T14:13:48.572Z,4.28
2022-09-27T14:16:19.740Z,4.07
2022-09-27T14:18:51.203Z,4.30
2022-09-27T14:21:27.186Z,4.30
2022-09-27T14:23:55.367Z,3.67
2022-09-27T14:26:25.751Z,3.83
2022-09-27T14:28:55.532Z,4.32
2022-09-27T14:31:24.988Z,4.55
2022-09-27T14:34:07.361Z,4.55
2022-09-27T14:36:54.843Z,3.90
2022-09-27T14:39:26.533Z,4.20
2022-09-27T14:41:54.694Z,4.93
2022-09-27T14:44:28.108Z,4.55
2022-09-27T14:47:10.359Z,3.97
2022-09-27T14:49:48.636Z,5.65
2022-09-27T14:52:24.379Z,4.85
2022-09-27T14:54:59.789Z,5.20
2022-09-27T14:57:30.379Z,5.90
2022-09-27T15:00:01.233Z,5.80
2022-09-27T15:02:30.660Z,5.13
2022-09-27T15:04:58.763Z,6.50
2022-09-27T15:07:28.027Z,5.28
2022-09-27T15:09:56.812Z,5.78
2022-09-27T15:12:27.481Z,5.13
2022-09-27T15:14:59.384Z,5.22
2022-09-27T15:17:28.913Z,5.82
2022-09-27T15:20:06.875Z,6.05
2022-09-27T15:22:45.056Z,6.45
2022-09-27T15:25:32.593Z,6.03
2022-09-27T15:28:02.736Z,6.50
2022-09-27T15:30:36.695Z,6.50
2022-09-27T15:33:08.769Z,7.45
2022-09-27T15:35:37.449Z,7.03
2022-09-27T15:38:26.001Z,7.78
2022-09-27T15:41:13.094Z,12.10
2022-09-27T15:43:45.557Z,7.00
2022-09-27T15:46:39.715Z,7.30
2022-09-27T15:49:30.948Z,6.57
2022-09-27T15:52:00.611Z,7.10
2022-09-27T15:54:30.826Z,7.03
2022-09-27T15:57:05.058Z,7.68
2022-09-27T15:59:36.103Z,7.45
2022-09-27T16:02:08.206Z,8.52
2022-09-27T16:04:37.860Z,8.52
2022-09-27T16:07:09.147Z,10.27
2022-09-27T16:09:37.306Z,9.43
2022-09-27T16:12:05.682Z,9.25
2022-09-27T16:14:33.812Z,8.77
2022-09-27T16:17:02.442Z,9.38
2022-09-27T16:19:30.468Z,9.50
2022-09-27T16:22:03.702Z,9.20
2022-09-27T16:24:32.347Z,10.05
2022-09-27T16:27:00.714Z,9.13
2022-09-27T16:29:28.767Z,9.38
2022-09-27T16:31:57.143Z,9.52
2022-09-27T16:34:25.282Z,9.88
2022-09-27T16:36:53.349Z,9.95
2022-09-27T16:39:22.856Z,11.48
2022-09-27T16:41:54.788Z,10.48
2022-09-27T16:44:22.727Z,11.95
2022-09-27T16:46:50.911Z,12.82
2022-09-27T16:49:36.520Z,10.23
2022-09-27T16:52:04.720Z,10.35
2022-09-27T16:54:34.232Z,6.68
2022-09-27T16:57:02.255Z,7.55
2022-09-27T16:59:30.320Z,7.88
2022-09-27T17:01:58.745Z,8.10
2022-09-27T17:04:27.966Z,9.18
2022-09-27T17:06:57.055Z,9.25
2022-09-27T17:09:25.629Z,8.82
2022-09-27T17:11:55.543Z,7.57
2022-09-27T17:14:24.010Z,8.65
2022-09-27T17:16:52.560Z,8.07
2022-09-27T17:19:21.083Z,8.27
2022-09-27T17:21:49.029Z,9.63
2022-09-27T17:24:17.163Z,10.02
2022-09-27T17:26:45.950Z,9.23
2022-09-27T17:29:16.280Z,8.70
2022-09-27T17:31:44.681Z,8.75
2022-09-27T17:34:15.845Z,8.93
2022-09-27T17:36:48.400Z,9.15
2022-09-27T17:39:18.982Z,7.68
2022-09-27T17:41:47.069Z,8.15
2022-09-27T17:44:18.308Z,8.80
2022-09-27T17:46:47.528Z,9.40
2022-09-27T17:49:33.506Z,9.20
2022-09-27T17:52:01.853Z,9.63
2022-09-27T17:54:29.949Z,10.65
2022-09-27T17:56:58.541Z,9.88
2022-09-27T17:59:28.034Z,10.63
2022-09-27T18:01:56.114Z,11.90
2022-09-27T18:04:24.175Z,10.55
2022-09-27T18:06:52.227Z,12.43
2022-09-27T18:09:20.283Z,12.85
2022-09-27T18:11:48.431Z,12.25
2022-09-27T18:14:16.795Z,11.98
2022-09-27T18:16:46.310Z,12.88
2022-09-27T18:19:16.574Z,12.80
2022-09-27T18:21:45.336Z,13.63
2022-09-27T18:24:14.306Z,12.95
2022-09-27T18:26:43.121Z,12.90
2022-09-27T18:29:13.382Z,13.20
2022-09-27T18:31:47.485Z,12.57
2022-09-27T18:34:18.999Z,12.65
2022-09-27T18:36:47.607Z,12.18
2022-09-27T18:39:19.447Z,11.55
2022-09-27T18:41:49.574Z,10.73
2022-09-27T18:44:19.163Z,9.77
2022-09-27T18:46:48.062Z,11.20
2022-09-27T18:49:18.098Z,10.50
2022-09-27T18:51:49.528Z,8.35
2022-09-27T18:54:20.976Z,8.93
2022-09-27T18:56:50.833Z,10.60
2022-09-27T18:59:20.791Z,11.38
2022-09-27T19:01:49.037Z,10.82
2022-09-27T19:04:24.601Z,11.60
2022-09-27T19:06:54.966Z,12.63
2022-09-27T19:09:23.409Z,12.90
2022-09-27T19:11:52.109Z,11.18
2022-09-27T19:14:22.724Z,12.80
2022-09-27T19:16:52.253Z,10.98
2022-09-27T19:19:22.429Z,11.75
2022-09-27T19:21:50.873Z,12.43
2022-09-27T19:24:19.923Z,11.75
2022-09-27T19:26:50.037Z,11.68
2022-09-27T19:29:18.183Z,11.35
2022-09-27T19:31:46.585Z,10.32
2022-09-27T19:34:14.623Z,10.75
2022-09-27T19:36:44.437Z,9.95
2022-09-27T19:39:12.443Z,9.95
2022-09-27T19:41:40.436Z,9.90
2022-09-27T19:44:08.552Z,11.85
2022-09-27T19:46:37.591Z,11.63
2022-09-27T19:49:05.725Z,10.60
2022-09-27T19:51:34.069Z,10.55
2022-09-27T19:54:04.293Z,9.98
2022-09-27T19:56:32.431Z,9.70
2022-09-27T19:59:04.972Z,11.02
2022-09-27T20:01:35.069Z,9.57
2022-09-27T20:04:03.563Z,10.27
2022-09-27T20:06:32.763Z,11.07
2022-09-27T20:09:03.081Z,12.02
2022-09-27T20:11:34.073Z,12.32
2022-09-27T20:14:02.289Z,13.20
2022-09-27T20:16:30.335Z,12.50
2022-09-27T20:19:00.363Z,11.90
2022-09-27T20:21:33.120Z,12.70
2022-09-27T20:24:02.762Z,10.52
2022-09-27T20:26:34.608Z,11.55
2022-09-27T20:29:04.936Z,10.13
2022-09-27T20:31:36.970Z,10.38
2022-09-27T20:34:06.569Z,9.35
2022-09-27T20:36:37.967Z,10.23
2022-09-27T20:39:07.469Z,10.90
2022-09-27T20:41:39.283Z,10.68
2022-09-27T20:44:09.194Z,10.48
2022-09-27T20:46:39.549Z,10.75
2022-09-27T20:49:14.754Z,11.02
2022-09-27T20:52:04.966Z,11.00
2022-09-27T20:54:33.214Z,10.57
2022-09-27T20:57:02.612Z,11.90
2022-09-27T20:59:30.651Z,10.45
2022-09-27T21:01:59.253Z,11.80
2022-09-27T21:04:27.377Z,11.40
2022-09-27T21:06:56.593Z,11.77
2022-09-27T21:09:24.758Z,12.48
2022-09-27T21:11:54.013Z,11.32
2022-09-27T21:14:24.276Z,11.57
2022-09-27T21:16:52.505Z,11.88
2022-09-27T21:19:20.562Z,11.90
2022-09-27T21:21:48.608Z,12.68
2022-09-27T21:24:16.861Z,12.32
2022-09-27T21:26:44.902Z,11.35
2022-09-27T21:29:15.147Z,11.73
2022-09-27T21:31:45.044Z,11.82
2022-09-27T21:34:13.042Z,9.18
2022-09-27T21:36:41.288Z,8.27
2022-09-27T21:39:10.674Z,8.43
2022-09-27T21:41:39.359Z,7.95
2022-09-27T21:44:07.751Z,8.23
2022-09-27T21:46:36.488Z,8.82
2022-09-27T21:49:05.923Z,9.30
2022-09-27T21:51:37.762Z,8.95
2022-09-27T21:54:08.841Z,8.63
2022-09-27T21:56:38.938Z,8.90
2022-09-27T21:59:08.201Z,9.27
2022-09-27T22:01:36.656Z,9.13
2022-09-27T22:04:07.895Z,8.45
2022-09-27T22:06:38.480Z,9.23
2022-09-27T22:09:10.666Z,9.38
2022-09-27T22:11:42.979Z,8.48
2022-09-27T22:14:13.433Z,8.98
2022-09-27T22:16:41.492Z,10.27
2022-09-27T22:19:12.283Z,10.48
2022-09-27T22:21:41.193Z,9.40
2022-09-27T22:24:12.172Z,9.32
2022-09-27T22:26:42.452Z,9.40
2022-09-27T22:29:10.578Z,8.60
2022-09-27T22:31:38.989Z,8.50
2022-09-27T22:34:10.840Z,9.82
2022-09-27T22:36:40.677Z,9.05
2022-09-27T22:39:08.854Z,17.98
2022-09-27T22:41:38.141Z,12.00
2022-09-27T22:44:06.354Z,8.90
2022-09-27T22:46:34.363Z,7.53
2022-09-27T22:49:02.684Z,7.30
2022-09-27T22:51:31.118Z,7.90
2022-09-27T22:54:00.945Z,8.45
2022-09-27T22:56:29.076Z,7.47
2022-09-27T22:58:57.592Z,8.30
2022-09-27T23:01:26.698Z,7.90
2022-09-27T23:03:56.023Z,8.23
2022-09-27T23:06:24.420Z,7.05
2022-09-27T23:08:53.862Z,6.85
2022-09-27T23:11:24.301Z,6.95
2022-09-27T23:13:53.024Z,6.55
2022-09-27T23:16:25.235Z,6.85
2022-09-27T23:18:54.313Z,6.72
2022-09-27T23:21:24.235Z,7.85
2022-09-27T23:23:52.989Z,7.07
2022-09-27T23:26:24.246Z,6.82
2022-09-27T23:28:54.687Z,6.45
2022-09-27T23:31:24.066Z,5.75
2022-09-27T23:33:53.239Z,6.10
2022-09-27T23:36:24.284Z,6.50
2022-09-27T23:38:52.489Z,6.18
2022-09-27T23:41:20.973Z,6.68
2022-09-27T23:43:49.913Z,6.20
2022-09-27T23:46:19.518Z,6.75
2022-09-27T23:48:47.929Z,6.30
2022-09-27T23:51:16.001Z,6.85
2022-09-27T23:53:44.610Z,7.00
2022-09-27T23:56:15.304Z,6.93
2022-09-27T23:58:45.103Z,7.10
